< < Back
Terminal Aerodrome Forecast


Current Version              Previous Versions:   1  2  3  4  5  6  7  8  9  

Terminal Aerodrome Forecast

726
FTUS42 KILM 041726
TAFFLO
TAF
KFLO 041726Z 0418/0518 29005KT P6SM SCT050
      TEMPO 0418/0422 BKN050
     FM050000 28003KT P6SM SCT070
     FM051200 31010KT P6SM SCT070=



Latest METAR

311
SAUS70 KWBC 051756
MTRFLO
METAR KFLO 051753Z 34011G19KT 10SM BKN043 BKN050 19/08 A2959 RMK AO2 LTG
DSNT W SLP017 T01890083 10194 20139 51004 $


USA.gov is the U.S. government's official web portal to all federal, state and local government web resources and services.